sensor_id;sensor_type;location;lat;lon;timestamp;temperature;humidity
11764;DHT22;5939;56.522;14.950;2023-07-20T00:01:51;15.10;99.90
11764;DHT22;5939;56.522;14.950;2023-07-20T00:04:17;15.10;99.90
11764;DHT22;5939;56.522;14.950;2023-07-20T00:06:43;15.10;99.90
11764;DHT22;5939;56.522;14.950;2023-07-20T00:09:08;15.10;99.90
11764;DHT22;5939;56.522;14.950;2023-07-20T00:11:37;15.00;99.90
11764;DHT22;5939;56.522;14.950;2023-07-20T00:14:06;15.00;99.90
11764;DHT22;5939;56.522;14.950;2023-07-20T00:16:32;15.00;99.90
11764;DHT22;5939;56.522;14.950;2023-07-20T00:18:57;15.00;99.90
11764;DHT22;5939;56.522;14.950;2023-07-20T00:21:23;15.00;99.90
11764;DHT22;5939;56.522;14.950;2023-07-20T00:23:49;15.00;99.90
11764;DHT22;5939;56.522;14.950;2023-07-20T00:26:14;14.90;99.90
11764;DHT22;5939;56.522;14.950;2023-07-20T00:28:40;14.90;99.90
11764;DHT22;5939;56.522;14.950;2023-07-20T00:31:06;14.90;99.90
11764;DHT22;5939;56.522;14.950;2023-07-20T00:33:31;14.90;99.90
11764;DHT22;5939;56.522;14.950;2023-07-20T00:35:57;14.90;99.90
11764;DHT22;5939;56.522;14.950;2023-07-20T00:38:23;14.80;99.90
11764;DHT22;5939;56.522;14.950;2023-07-20T00:40:48;14.80;99.90
11764;DHT22;5939;56.522;14.950;2023-07-20T00:43:15;14.80;99.90
11764;DHT22;5939;56.522;14.950;2023-07-20T00:45:41;14.80;99.90
11764;DHT22;5939;56.522;14.950;2023-07-20T00:48:08;14.80;99.90
11764;DHT22;5939;56.522;14.950;2023-07-20T00:50:34;14.70;99.90
11764;DHT22;5939;56.522;14.950;2023-07-20T00:53:00;14.70;99.90
11764;DHT22;5939;56.522;14.950;2023-07-20T00:55:29;14.70;99.90
11764;DHT22;5939;56.522;14.950;2023-07-20T00:57:55;14.70;99.90
11764;DHT22;5939;56.522;14.950;2023-07-20T01:00:20;14.70;99.90
11764;DHT22;5939;56.522;14.950;2023-07-20T01:02:46;14.70;99.90
11764;DHT22;5939;56.522;14.950;2023-07-20T01:05:13;14.70;99.90
11764;DHT22;5939;56.522;14.950;2023-07-20T01:10:33;14.60;99.90
11764;DHT22;5939;56.522;14.950;2023-07-20T01:13:01;14.60;99.90
11764;DHT22;5939;56.522;14.950;2023-07-20T01:15:28;14.60;99.90
11764;DHT22;5939;56.522;14.950;2023-07-20T01:17:54;14.60;99.90
11764;DHT22;5939;56.522;14.950;2023-07-20T01:20:20;14.60;99.90
11764;DHT22;5939;56.522;14.950;2023-07-20T01:31:32;14.50;99.90
11764;DHT22;5939;56.522;14.950;2023-07-20T01:34:01;14.50;99.90
11764;DHT22;5939;56.522;14.950;2023-07-20T01:36:30;14.40;99.90
11764;DHT22;5939;56.522;14.950;2023-07-20T01:38:58;14.40;99.90
11764;DHT22;5939;56.522;14.950;2023-07-20T01:41:24;14.40;99.90
11764;DHT22;5939;56.522;14.950;2023-07-20T01:43:50;14.40;99.90
11764;DHT22;5939;56.522;14.950;2023-07-20T01:46:16;14.40;99.90
11764;DHT22;5939;56.522;14.950;2023-07-20T01:48:41;14.40;99.90
11764;DHT22;5939;56.522;14.950;2023-07-20T01:51:07;14.30;99.90
11764;DHT22;5939;56.522;14.950;2023-07-20T01:53:33;14.30;99.90
11764;DHT22;5939;56.522;14.950;2023-07-20T01:55:58;14.30;99.90
11764;DHT22;5939;56.522;14.950;2023-07-20T01:58:24;14.30;99.90
11764;DHT22;5939;56.522;14.950;2023-07-20T02:00:50;14.30;99.90
11764;DHT22;5939;56.522;14.950;2023-07-20T02:03:15;14.30;99.90
11764;DHT22;5939;56.522;14.950;2023-07-20T02:05:44;14.30;99.90
11764;DHT22;5939;56.522;14.950;2023-07-20T02:08:10;14.20;99.90
11764;DHT22;5939;56.522;14.950;2023-07-20T02:10:36;14.20;99.90
11764;DHT22;5939;56.522;14.950;2023-07-20T02:13:02;14.20;99.90
11764;DHT22;5939;56.522;14.950;2023-07-20T02:15:27;14.20;99.90
11764;DHT22;5939;56.522;14.950;2023-07-20T02:17:54;14.20;99.90
11764;DHT22;5939;56.522;14.950;2023-07-20T02:20:19;14.10;99.90
11764;DHT22;5939;56.522;14.950;2023-07-20T02:22:45;14.20;99.90
11764;DHT22;5939;56.522;14.950;2023-07-20T02:25:11;14.10;99.90
11764;DHT22;5939;56.522;14.950;2023-07-20T02:27:37;14.10;99.90
11764;DHT22;5939;56.522;14.950;2023-07-20T02:30:03;14.10;99.90
11764;DHT22;5939;56.522;14.950;2023-07-20T02:32:30;14.10;99.90
11764;DHT22;5939;56.522;14.950;2023-07-20T02:34:56;14.00;99.90
11764;DHT22;5939;56.522;14.950;2023-07-20T02:37:21;14.00;99.90
11764;DHT22;5939;56.522;14.950;2023-07-20T02:39:47;14.00;99.90
11764;DHT22;5939;56.522;14.950;2023-07-20T02:42:12;14.00;99.90
11764;DHT22;5939;56.522;14.950;2023-07-20T02:44:38;14.00;99.90
11764;DHT22;5939;56.522;14.950;2023-07-20T02:47:04;14.00;99.90
11764;DHT22;5939;56.522;14.950;2023-07-20T02:49:30;14.00;99.90
11764;DHT22;5939;56.522;14.950;2023-07-20T02:51:55;14.00;99.90
11764;DHT22;5939;56.522;14.950;2023-07-20T02:54:22;14.00;99.90
11764;DHT22;5939;56.522;14.950;2023-07-20T02:56:47;13.90;99.90
11764;DHT22;5939;56.522;14.950;2023-07-20T02:59:13;13.90;99.90
11764;DHT22;5939;56.522;14.950;2023-07-20T03:01:38;13.90;99.90
11764;DHT22;5939;56.522;14.950;2023-07-20T03:04:04;13.90;99.90
11764;DHT22;5939;56.522;14.950;2023-07-20T03:06:30;13.90;99.90
11764;DHT22;5939;56.522;14.950;2023-07-20T03:08:56;13.90;99.90
11764;DHT22;5939;56.522;14.950;2023-07-20T03:11:22;13.90;99.90
11764;DHT22;5939;56.522;14.950;2023-07-20T03:13:47;13.90;99.90
11764;DHT22;5939;56.522;14.950;2023-07-20T03:16:18;13.80;99.90
11764;DHT22;5939;56.522;14.950;2023-07-20T03:18:43;13.80;99.90
11764;DHT22;5939;56.522;14.950;2023-07-20T03:21:10;13.80;99.90
11764;DHT22;5939;56.522;14.950;2023-07-20T03:23:39;13.90;99.90
11764;DHT22;5939;56.522;14.950;2023-07-20T03:26:05;13.80;99.90
11764;DHT22;5939;56.522;14.950;2023-07-20T03:28:34;13.80;99.90
11764;DHT22;5939;56.522;14.950;2023-07-20T03:30:59;13.80;99.90
11764;DHT22;5939;56.522;14.950;2023-07-20T03:33:27;13.80;99.90
11764;DHT22;5939;56.522;14.950;2023-07-20T03:35:54;13.80;99.90
11764;DHT22;5939;56.522;14.950;2023-07-20T03:38:20;13.80;99.90
11764;DHT22;5939;56.522;14.950;2023-07-20T03:40:59;13.80;99.90
11764;DHT22;5939;56.522;14.950;2023-07-20T03:43:26;13.80;99.90
11764;DHT22;5939;56.522;14.950;2023-07-20T03:45:52;13.80;99.90
11764;DHT22;5939;56.522;14.950;2023-07-20T03:48:20;13.80;99.90
11764;DHT22;5939;56.522;14.950;2023-07-20T03:50:48;13.80;99.90
11764;DHT22;5939;56.522;14.950;2023-07-20T03:53:15;13.70;99.90
11764;DHT22;5939;56.522;14.950;2023-07-20T03:55:44;13.80;99.90
11764;DHT22;5939;56.522;14.950;2023-07-20T03:58:12;13.80;99.90
11764;DHT22;5939;56.522;14.950;2023-07-20T04:00:37;13.70;99.90
11764;DHT22;5939;56.522;14.950;2023-07-20T04:03:03;13.80;99.90
11764;DHT22;5939;56.522;14.950;2023-07-20T04:05:29;13.70;99.90
11764;DHT22;5939;56.522;14.950;2023-07-20T04:07:55;13.80;99.90
11764;DHT22;5939;56.522;14.950;2023-07-20T04:10:20;13.80;99.90
11764;DHT22;5939;56.522;14.950;2023-07-20T04:12:46;13.70;99.90
11764;DHT22;5939;56.522;14.950;2023-07-20T04:15:15;13.80;99.90
11764;DHT22;5939;56.522;14.950;2023-07-20T04:17:40;13.80;99.90
11764;DHT22;5939;56.522;14.950;2023-07-20T04:20:07;13.80;99.90
11764;DHT22;5939;56.522;14.950;2023-07-20T04:22:33;13.80;99.90
11764;DHT22;5939;56.522;14.950;2023-07-20T04:24:59;13.80;99.90
11764;DHT22;5939;56.522;14.950;2023-07-20T04:27:24;13.80;99.90
11764;DHT22;5939;56.522;14.950;2023-07-20T04:29:50;13.80;99.90
11764;DHT22;5939;56.522;14.950;2023-07-20T04:32:16;13.80;99.90
11764;DHT22;5939;56.522;14.950;2023-07-20T04:34:42;13.80;99.90
11764;DHT22;5939;56.522;14.950;2023-07-20T04:37:07;13.80;99.90
11764;DHT22;5939;56.522;14.950;2023-07-20T04:39:33;13.80;99.90
11764;DHT22;5939;56.522;14.950;2023-07-20T04:41:59;13.80;99.90
11764;DHT22;5939;56.522;14.950;2023-07-20T04:44:25;13.80;99.90
11764;DHT22;5939;56.522;14.950;2023-07-20T04:46:50;13.80;99.90
11764;DHT22;5939;56.522;14.950;2023-07-20T04:49:16;13.80;99.90
11764;DHT22;5939;56.522;14.950;2023-07-20T04:51:41;13.80;99.90
11764;DHT22;5939;56.522;14.950;2023-07-20T04:54:07;13.80;99.90
11764;DHT22;5939;56.522;14.950;2023-07-20T04:56:33;13.80;99.90
11764;DHT22;5939;56.522;14.950;2023-07-20T04:58:59;13.90;99.90
11764;DHT22;5939;56.522;14.950;2023-07-20T05:01:24;13.80;99.90
11764;DHT22;5939;56.522;14.950;2023-07-20T05:03:52;13.80;99.90
11764;DHT22;5939;56.522;14.950;2023-07-20T05:06:17;13.90;99.90
11764;DHT22;5939;56.522;14.950;2023-07-20T05:08:43;13.90;99.90
11764;DHT22;5939;56.522;14.950;2023-07-20T05:11:10;13.90;99.90
11764;DHT22;5939;56.522;14.950;2023-07-20T05:13:36;13.90;99.90
11764;DHT22;5939;56.522;14.950;2023-07-20T05:16:02;13.90;99.90
11764;DHT22;5939;56.522;14.950;2023-07-20T05:18:27;13.90;99.90
11764;DHT22;5939;56.522;14.950;2023-07-20T05:20:53;13.90;99.90
11764;DHT22;5939;56.522;14.950;2023-07-20T05:23:21;14.00;99.90
11764;DHT22;5939;56.522;14.950;2023-07-20T05:25:59;14.00;99.90
11764;DHT22;5939;56.522;14.950;2023-07-20T05:28:26;14.00;99.90
11764;DHT22;5939;56.522;14.950;2023-07-20T05:30:52;14.00;99.90
11764;DHT22;5939;56.522;14.950;2023-07-20T05:33:21;14.10;99.90
11764;DHT22;5939;56.522;14.950;2023-07-20T05:35:48;14.10;99.90
11764;DHT22;5939;56.522;14.950;2023-07-20T05:38:14;14.20;99.90
11764;DHT22;5939;56.522;14.950;2023-07-20T05:40:41;14.20;99.90
11764;DHT22;5939;56.522;14.950;2023-07-20T05:43:10;14.30;99.90
11764;DHT22;5939;56.522;14.950;2023-07-20T05:45:36;14.30;99.90
11764;DHT22;5939;56.522;14.950;2023-07-20T05:48:01;14.40;99.90
11764;DHT22;5939;56.522;14.950;2023-07-20T05:50:27;14.50;99.90
11764;DHT22;5939;56.522;14.950;2023-07-20T05:52:53;14.60;99.90
11764;DHT22;5939;56.522;14.950;2023-07-20T05:55:19;14.60;99.90
11764;DHT22;5939;56.522;14.950;2023-07-20T05:57:45;14.70;99.90
11764;DHT22;5939;56.522;14.950;2023-07-20T06:00:12;14.80;99.90
11764;DHT22;5939;56.522;14.950;2023-07-20T06:02:39;14.90;99.90
11764;DHT22;5939;56.522;14.950;2023-07-20T06:05:08;15.00;99.90
11764;DHT22;5939;56.522;14.950;2023-07-20T06:07:37;15.00;99.90
11764;DHT22;5939;56.522;14.950;2023-07-20T06:10:04;15.10;99.90
11764;DHT22;5939;56.522;14.950;2023-07-20T06:12:31;15.20;99.90
11764;DHT22;5939;56.522;14.950;2023-07-20T06:14:56;15.30;99.90
11764;DHT22;5939;56.522;14.950;2023-07-20T06:17:22;15.40;99.90
11764;DHT22;5939;56.522;14.950;2023-07-20T06:19:48;15.50;99.90
11764;DHT22;5939;56.522;14.950;2023-07-20T06:22:13;15.60;99.90
11764;DHT22;5939;56.522;14.950;2023-07-20T06:24:39;15.60;99.90
11764;DHT22;5939;56.522;14.950;2023-07-20T06:27:05;15.70;99.90
11764;DHT22;5939;56.522;14.950;2023-07-20T06:29:31;15.80;99.90
11764;DHT22;5939;56.522;14.950;2023-07-20T06:31:57;15.90;99.90
11764;DHT22;5939;56.522;14.950;2023-07-20T06:34:22;16.00;99.90
11764;DHT22;5939;56.522;14.950;2023-07-20T06:36:48;16.10;99.90
11764;DHT22;5939;56.522;14.950;2023-07-20T06:39:13;16.20;99.90
11764;DHT22;5939;56.522;14.950;2023-07-20T06:41:39;16.30;99.90
11764;DHT22;5939;56.522;14.950;2023-07-20T06:44:05;16.40;99.90
11764;DHT22;5939;56.522;14.950;2023-07-20T06:46:31;16.40;99.90
11764;DHT22;5939;56.522;14.950;2023-07-20T06:48:56;16.60;99.90
11764;DHT22;5939;56.522;14.950;2023-07-20T06:51:22;16.70;99.90
11764;DHT22;5939;56.522;14.950;2023-07-20T06:53:48;16.70;99.90
11764;DHT22;5939;56.522;14.950;2023-07-20T06:56:14;16.80;99.90
11764;DHT22;5939;56.522;14.950;2023-07-20T06:58:39;16.90;99.90
11764;DHT22;5939;56.522;14.950;2023-07-20T07:01:08;17.00;99.90
11764;DHT22;5939;56.522;14.950;2023-07-20T07:03:34;17.00;99.90
11764;DHT22;5939;56.522;14.950;2023-07-20T07:06:00;17.10;99.90
11764;DHT22;5939;56.522;14.950;2023-07-20T07:08:26;17.20;99.90
11764;DHT22;5939;56.522;14.950;2023-07-20T07:10:52;17.30;99.90
11764;DHT22;5939;56.522;14.950;2023-07-20T07:13:19;17.30;99.90
11764;DHT22;5939;56.522;14.950;2023-07-20T07:15:44;17.40;99.90
11764;DHT22;5939;56.522;14.950;2023-07-20T07:18:11;17.40;99.90
11764;DHT22;5939;56.522;14.950;2023-07-20T07:20:36;17.50;99.90
11764;DHT22;5939;56.522;14.950;2023-07-20T07:23:02;17.60;99.90
11764;DHT22;5939;56.522;14.950;2023-07-20T07:25:28;17.60;99.90
11764;DHT22;5939;56.522;14.950;2023-07-20T07:27:54;17.70;99.90
11764;DHT22;5939;56.522;14.950;2023-07-20T07:30:21;17.80;99.90
11764;DHT22;5939;56.522;14.950;2023-07-20T07:32:47;17.90;99.90
11764;DHT22;5939;56.522;14.950;2023-07-20T07:35:12;18.00;99.90
11764;DHT22;5939;56.522;14.950;2023-07-20T07:37:38;18.00;99.90
11764;DHT22;5939;56.522;14.950;2023-07-20T07:40:05;18.10;99.90
11764;DHT22;5939;56.522;14.950;2023-07-20T07:42:31;18.20;99.90
11764;DHT22;5939;56.522;14.950;2023-07-20T07:44:57;18.20;99.90
11764;DHT22;5939;56.522;14.950;2023-07-20T07:47:23;18.30;99.90
11764;DHT22;5939;56.522;14.950;2023-07-20T07:49:48;18.30;99.90
11764;DHT22;5939;56.522;14.950;2023-07-20T07:52:15;18.30;99.90
11764;DHT22;5939;56.522;14.950;2023-07-20T07:54:40;18.40;99.90
11764;DHT22;5939;56.522;14.950;2023-07-20T07:57:06;18.50;99.90
11764;DHT22;5939;56.522;14.950;2023-07-20T07:59:32;18.60;99.90
11764;DHT22;5939;56.522;14.950;2023-07-20T08:02:03;18.60;99.90
11764;DHT22;5939;56.522;14.950;2023-07-20T08:04:29;18.70;99.90
11764;DHT22;5939;56.522;14.950;2023-07-20T08:06:55;18.80;99.90
11764;DHT22;5939;56.522;14.950;2023-07-20T08:09:20;18.80;99.90
11764;DHT22;5939;56.522;14.950;2023-07-20T08:11:46;18.80;99.90
11764;DHT22;5939;56.522;14.950;2023-07-20T08:14:12;18.90;99.90
11764;DHT22;5939;56.522;14.950;2023-07-20T08:16:38;18.90;99.90
11764;DHT22;5939;56.522;14.950;2023-07-20T08:19:04;18.90;99.90
11764;DHT22;5939;56.522;14.950;2023-07-20T08:21:29;18.90;99.90
11764;DHT22;5939;56.522;14.950;2023-07-20T08:23:55;18.90;99.90
11764;DHT22;5939;56.522;14.950;2023-07-20T08:26:21;18.90;99.90
11764;DHT22;5939;56.522;14.950;2023-07-20T08:28:48;18.90;99.90
11764;DHT22;5939;56.522;14.950;2023-07-20T08:31:14;18.90;99.90
11764;DHT22;5939;56.522;14.950;2023-07-20T08:33:39;18.90;99.90
11764;DHT22;5939;56.522;14.950;2023-07-20T08:36:05;19.00;99.90
11764;DHT22;5939;56.522;14.950;2023-07-20T08:38:31;19.00;99.90
11764;DHT22;5939;56.522;14.950;2023-07-20T08:40:57;19.00;99.90
11764;DHT22;5939;56.522;14.950;2023-07-20T08:43:25;19.00;99.90
11764;DHT22;5939;56.522;14.950;2023-07-20T08:45:52;19.00;99.90
11764;DHT22;5939;56.522;14.950;2023-07-20T08:48:20;19.10;99.90
11764;DHT22;5939;56.522;14.950;2023-07-20T08:50:47;19.00;99.90
11764;DHT22;5939;56.522;14.950;2023-07-20T08:53:13;19.00;99.90
11764;DHT22;5939;56.522;14.950;2023-07-20T08:55:40;19.00;99.90
11764;DHT22;5939;56.522;14.950;2023-07-20T08:58:12;19.00;99.90
11764;DHT22;5939;56.522;14.950;2023-07-20T09:00:38;19.00;99.90
11764;DHT22;5939;56.522;14.950;2023-07-20T09:03:04;19.00;99.90
11764;DHT22;5939;56.522;14.950;2023-07-20T09:05:30;18.90;99.90
11764;DHT22;5939;56.522;14.950;2023-07-20T09:07:55;18.90;99.90
11764;DHT22;5939;56.522;14.950;2023-07-20T09:10:23;18.90;99.90
11764;DHT22;5939;56.522;14.950;2023-07-20T09:12:49;18.90;99.90
11764;DHT22;5939;56.522;14.950;2023-07-20T09:15:14;18.90;99.90
11764;DHT22;5939;56.522;14.950;2023-07-20T09:17:49;18.90;99.90
11764;DHT22;5939;56.522;14.950;2023-07-20T09:20:17;18.90;99.90
11764;DHT22;5939;56.522;14.950;2023-07-20T09:22:43;18.90;99.90
11764;DHT22;5939;56.522;14.950;2023-07-20T09:25:13;18.90;99.90
11764;DHT22;5939;56.522;14.950;2023-07-20T09:27:43;18.90;99.90
11764;DHT22;5939;56.522;14.950;2023-07-20T09:30:10;18.90;99.90
11764;DHT22;5939;56.522;14.950;2023-07-20T09:32:44;18.80;99.90
11764;DHT22;5939;56.522;14.950;2023-07-20T09:35:20;18.80;99.90
11764;DHT22;5939;56.522;14.950;2023-07-20T09:37:54;18.80;99.90
11764;DHT22;5939;56.522;14.950;2023-07-20T09:40:20;18.80;99.90
11764;DHT22;5939;56.522;14.950;2023-07-20T09:42:47;18.70;99.90
11764;DHT22;5939;56.522;14.950;2023-07-20T09:45:14;18.80;99.90
11764;DHT22;5939;56.522;14.950;2023-07-20T09:47:40;18.80;99.90
11764;DHT22;5939;56.522;14.950;2023-07-20T09:50:07;18.80;99.90
11764;DHT22;5939;56.522;14.950;2023-07-20T09:52:38;18.80;99.90
11764;DHT22;5939;56.522;14.950;2023-07-20T09:55:05;18.80;99.90
11764;DHT22;5939;56.522;14.950;2023-07-20T09:57:33;18.80;99.90
11764;DHT22;5939;56.522;14.950;2023-07-20T09:59:59;18.90;99.90
11764;DHT22;5939;56.522;14.950;2023-07-20T10:02:33;18.90;99.90
11764;DHT22;5939;56.522;14.950;2023-07-20T10:05:02;18.90;99.90
11764;DHT22;5939;56.522;14.950;2023-07-20T10:07:28;19.00;99.90
11764;DHT22;5939;56.522;14.950;2023-07-20T10:09:56;19.00;99.90
11764;DHT22;5939;56.522;14.950;2023-07-20T10:12:25;19.00;99.90
11764;DHT22;5939;56.522;14.950;2023-07-20T10:15:04;19.00;99.90
11764;DHT22;5939;56.522;14.950;2023-07-20T10:17:37;19.00;99.90
11764;DHT22;5939;56.522;14.950;2023-07-20T10:20:05;19.00;99.90
11764;DHT22;5939;56.522;14.950;2023-07-20T10:22:36;19.00;99.90
11764;DHT22;5939;56.522;14.950;2023-07-20T10:25:02;19.00;99.90
11764;DHT22;5939;56.522;14.950;2023-07-20T10:27:30;19.00;99.90
11764;DHT22;5939;56.522;14.950;2023-07-20T10:29:57;19.00;99.90
11764;DHT22;5939;56.522;14.950;2023-07-20T10:32:24;19.00;99.90
11764;DHT22;5939;56.522;14.950;2023-07-20T10:34:56;19.00;99.90
11764;DHT22;5939;56.522;14.950;2023-07-20T10:40:32;19.00;99.90
11764;DHT22;5939;56.522;14.950;2023-07-20T10:43:05;19.00;99.90
11764;DHT22;5939;56.522;14.950;2023-07-20T10:45:34;19.00;99.90
11764;DHT22;5939;56.522;14.950;2023-07-20T10:48:03;19.00;99.90
11764;DHT22;5939;56.522;14.950;2023-07-20T10:50:30;19.00;99.90
11764;DHT22;5939;56.522;14.950;2023-07-20T10:53:10;19.00;99.90
11764;DHT22;5939;56.522;14.950;2023-07-20T10:55:37;19.10;99.90
11764;DHT22;5939;56.522;14.950;2023-07-20T10:58:15;19.20;99.90
11764;DHT22;5939;56.522;14.950;2023-07-20T11:01:05;19.20;99.90
11764;DHT22;5939;56.522;14.950;2023-07-20T11:03:37;19.30;99.90
11764;DHT22;5939;56.522;14.950;2023-07-20T11:08:56;19.30;99.90
11764;DHT22;5939;56.522;14.950;2023-07-20T11:11:23;19.30;99.90
11764;DHT22;5939;56.522;14.950;2023-07-20T11:14:09;19.40;99.90
11764;DHT22;5939;56.522;14.950;2023-07-20T11:16:44;19.40;99.90
11764;DHT22;5939;56.522;14.950;2023-07-20T11:21:44;19.50;99.90
11764;DHT22;5939;56.522;14.950;2023-07-20T11:24:11;19.60;99.90
11764;DHT22;5939;56.522;14.950;2023-07-20T11:26:46;19.60;99.90
11764;DHT22;5939;56.522;14.950;2023-07-20T11:29:12;19.70;99.90
11764;DHT22;5939;56.522;14.950;2023-07-20T11:31:40;19.70;99.90
11764;DHT22;5939;56.522;14.950;2023-07-20T11:34:07;19.70;99.90
11764;DHT22;5939;56.522;14.950;2023-07-20T11:36:34;19.80;99.90
11764;DHT22;5939;56.522;14.950;2023-07-20T11:39:00;19.70;99.90
11764;DHT22;5939;56.522;14.950;2023-07-20T11:41:25;19.80;99.90
11764;DHT22;5939;56.522;14.950;2023-07-20T11:43:53;19.80;99.90
11764;DHT22;5939;56.522;14.950;2023-07-20T11:46:20;19.80;99.90
11764;DHT22;5939;56.522;14.950;2023-07-20T11:48:46;19.80;99.90
11764;DHT22;5939;56.522;14.950;2023-07-20T11:51:16;19.90;99.90
11764;DHT22;5939;56.522;14.950;2023-07-20T11:53:43;19.90;99.90
11764;DHT22;5939;56.522;14.950;2023-07-20T11:56:10;19.90;99.90
11764;DHT22;5939;56.522;14.950;2023-07-20T11:58:41;19.90;99.90
11764;DHT22;5939;56.522;14.950;2023-07-20T12:01:06;19.90;99.90
11764;DHT22;5939;56.522;14.950;2023-07-20T12:03:32;19.90;99.90
11764;DHT22;5939;56.522;14.950;2023-07-20T12:06:06;19.90;99.90
11764;DHT22;5939;56.522;14.950;2023-07-20T12:08:32;19.90;99.90
11764;DHT22;5939;56.522;14.950;2023-07-20T12:10:58;19.90;99.90
11764;DHT22;5939;56.522;14.950;2023-07-20T12:13:24;19.90;99.90
11764;DHT22;5939;56.522;14.950;2023-07-20T12:16:08;19.90;99.90
11764;DHT22;5939;56.522;14.950;2023-07-20T12:18:37;19.90;99.90
11764;DHT22;5939;56.522;14.950;2023-07-20T12:21:02;19.90;99.90
11764;DHT22;5939;56.522;14.950;2023-07-20T12:23:36;20.00;99.90
11764;DHT22;5939;56.522;14.950;2023-07-20T12:26:02;20.00;99.90
11764;DHT22;5939;56.522;14.950;2023-07-20T12:28:29;20.10;99.90
11764;DHT22;5939;56.522;14.950;2023-07-20T12:30:55;20.10;99.90
11764;DHT22;5939;56.522;14.950;2023-07-20T12:33:24;20.10;99.90
11764;DHT22;5939;56.522;14.950;2023-07-20T12:35:50;20.20;99.90
11764;DHT22;5939;56.522;14.950;2023-07-20T12:38:16;20.30;99.90
11764;DHT22;5939;56.522;14.950;2023-07-20T12:40:42;20.30;99.90
11764;DHT22;5939;56.522;14.950;2023-07-20T12:43:08;20.30;99.90
11764;DHT22;5939;56.522;14.950;2023-07-20T12:45:34;20.40;99.90
11764;DHT22;5939;56.522;14.950;2023-07-20T12:47:59;20.40;99.90
11764;DHT22;5939;56.522;14.950;2023-07-20T12:50:26;20.50;99.90
11764;DHT22;5939;56.522;14.950;2023-07-20T12:52:51;20.50;99.90
11764;DHT22;5939;56.522;14.950;2023-07-20T12:55:17;20.50;99.90
11764;DHT22;5939;56.522;14.950;2023-07-20T12:57:43;20.60;99.90
11764;DHT22;5939;56.522;14.950;2023-07-20T13:00:10;20.60;99.90
11764;DHT22;5939;56.522;14.950;2023-07-20T13:02:37;20.60;99.90
11764;DHT22;5939;56.522;14.950;2023-07-20T13:05:03;20.70;99.90
11764;DHT22;5939;56.522;14.950;2023-07-20T13:07:30;20.70;99.90
11764;DHT22;5939;56.522;14.950;2023-07-20T13:09:57;20.70;99.90
11764;DHT22;5939;56.522;14.950;2023-07-20T13:12:24;20.70;99.90
11764;DHT22;5939;56.522;14.950;2023-07-20T13:14:50;20.70;99.90
11764;DHT22;5939;56.522;14.950;2023-07-20T13:17:15;20.70;99.90
11764;DHT22;5939;56.522;14.950;2023-07-20T13:19:41;20.70;99.90
11764;DHT22;5939;56.522;14.950;2023-07-20T13:22:07;20.70;99.90
11764;DHT22;5939;56.522;14.950;2023-07-20T13:24:32;20.70;99.90
11764;DHT22;5939;56.522;14.950;2023-07-20T13:26:58;20.70;99.90
11764;DHT22;5939;56.522;14.950;2023-07-20T13:29:24;20.70;99.90
11764;DHT22;5939;56.522;14.950;2023-07-20T13:31:50;20.70;99.90
11764;DHT22;5939;56.522;14.950;2023-07-20T13:34:15;20.70;99.90
11764;DHT22;5939;56.522;14.950;2023-07-20T13:36:41;20.70;99.90
11764;DHT22;5939;56.522;14.950;2023-07-20T13:39:06;20.60;99.90
11764;DHT22;5939;56.522;14.950;2023-07-20T13:41:33;20.60;99.90
11764;DHT22;5939;56.522;14.950;2023-07-20T13:43:59;20.60;99.90
11764;DHT22;5939;56.522;14.950;2023-07-20T13:46:25;20.60;99.90
11764;DHT22;5939;56.522;14.950;2023-07-20T13:48:51;20.60;99.90
11764;DHT22;5939;56.522;14.950;2023-07-20T13:51:17;20.60;99.90
11764;DHT22;5939;56.522;14.950;2023-07-20T13:53:45;20.60;99.90
11764;DHT22;5939;56.522;14.950;2023-07-20T13:56:11;20.60;99.90
11764;DHT22;5939;56.522;14.950;2023-07-20T13:58:37;20.50;99.90
11764;DHT22;5939;56.522;14.950;2023-07-20T14:01:02;20.50;99.90
11764;DHT22;5939;56.522;14.950;2023-07-20T14:03:28;20.50;99.90
11764;DHT22;5939;56.522;14.950;2023-07-20T14:05:54;20.50;99.90
11764;DHT22;5939;56.522;14.950;2023-07-20T14:08:20;20.50;99.90
11764;DHT22;5939;56.522;14.950;2023-07-20T14:10:46;20.50;99.90
11764;DHT22;5939;56.522;14.950;2023-07-20T14:13:11;20.50;99.90
11764;DHT22;5939;56.522;14.950;2023-07-20T14:15:38;20.40;99.90
11764;DHT22;5939;56.522;14.950;2023-07-20T14:18:04;20.40;99.90
11764;DHT22;5939;56.522;14.950;2023-07-20T14:20:29;20.40;99.90
11764;DHT22;5939;56.522;14.950;2023-07-20T14:22:55;20.40;99.90
11764;DHT22;5939;56.522;14.950;2023-07-20T14:25:21;20.40;99.90
11764;DHT22;5939;56.522;14.950;2023-07-20T14:27:46;20.40;99.90
11764;DHT22;5939;56.522;14.950;2023-07-20T14:30:12;20.40;99.90
11764;DHT22;5939;56.522;14.950;2023-07-20T14:32:38;20.30;99.90
11764;DHT22;5939;56.522;14.950;2023-07-20T14:35:04;20.30;99.90
11764;DHT22;5939;56.522;14.950;2023-07-20T14:37:30;20.30;99.90
11764;DHT22;5939;56.522;14.950;2023-07-20T14:39:56;20.30;99.90
11764;DHT22;5939;56.522;14.950;2023-07-20T14:42:21;20.30;99.90
11764;DHT22;5939;56.522;14.950;2023-07-20T14:44:47;20.30;99.90
11764;DHT22;5939;56.522;14.950;2023-07-20T14:47:13;20.30;99.90
11764;DHT22;5939;56.522;14.950;2023-07-20T14:49:39;20.20;99.90
11764;DHT22;5939;56.522;14.950;2023-07-20T14:52:04;20.20;99.90
11764;DHT22;5939;56.522;14.950;2023-07-20T14:54:30;20.20;99.90
11764;DHT22;5939;56.522;14.950;2023-07-20T14:56:56;20.20;99.90
11764;DHT22;5939;56.522;14.950;2023-07-20T14:59:22;20.20;99.90
11764;DHT22;5939;56.522;14.950;2023-07-20T15:01:48;20.10;99.90
11764;DHT22;5939;56.522;14.950;2023-07-20T15:04:14;20.10;99.90
11764;DHT22;5939;56.522;14.950;2023-07-20T15:06:40;20.10;99.90
11764;DHT22;5939;56.522;14.950;2023-07-20T15:09:06;20.10;99.90
11764;DHT22;5939;56.522;14.950;2023-07-20T15:11:32;20.10;99.90
11764;DHT22;5939;56.522;14.950;2023-07-20T15:13:58;20.10;99.90
11764;DHT22;5939;56.522;14.950;2023-07-20T15:16:24;20.10;99.90
11764;DHT22;5939;56.522;14.950;2023-07-20T15:18:49;20.00;99.90
11764;DHT22;5939;56.522;14.950;2023-07-20T15:21:16;20.00;99.90
11764;DHT22;5939;56.522;14.950;2023-07-20T15:23:43;20.00;99.90
11764;DHT22;5939;56.522;14.950;2023-07-20T15:26:08;20.00;99.90
11764;DHT22;5939;56.522;14.950;2023-07-20T15:28:36;20.00;99.90
11764;DHT22;5939;56.522;14.950;2023-07-20T15:31:03;19.90;99.90
11764;DHT22;5939;56.522;14.950;2023-07-20T15:33:29;19.90;99.90
11764;DHT22;5939;56.522;14.950;2023-07-20T15:35:56;19.90;99.90
11764;DHT22;5939;56.522;14.950;2023-07-20T15:38:22;19.90;99.90
11764;DHT22;5939;56.522;14.950;2023-07-20T15:40:47;19.90;99.90
11764;DHT22;5939;56.522;14.950;2023-07-20T15:43:16;19.90;99.90
11764;DHT22;5939;56.522;14.950;2023-07-20T15:45:46;19.80;99.90
11764;DHT22;5939;56.522;14.950;2023-07-20T15:48:14;19.80;99.90